createdAt,value
2019-05-16T00:03:41.192Z,81.29
2019-05-16T00:08:42.079Z,81.03
2019-05-16T00:13:42.951Z,81.03
2019-05-16T00:18:43.829Z,81.80
2019-05-16T00:23:44.712Z,81.74
2019-05-16T00:28:45.674Z,81.91
2019-05-16T00:33:48.778Z,81.72
2019-05-16T00:38:49.548Z,81.14
2019-05-16T00:43:50.423Z,81.78
2019-05-16T00:48:51.297Z,82.31
2019-05-16T00:53:52.277Z,82.44
2019-05-16T00:58:53.580Z,81.66
2019-05-16T01:03:54.440Z,83.25
2019-05-16T01:08:55.322Z,81.92
2019-05-16T01:13:57.902Z,83.12
2019-05-16T01:18:59.102Z,82.39
2019-05-16T01:23:59.939Z,81.70
2019-05-16T01:29:00.911Z,83.13
2019-05-16T01:34:01.782Z,83.31
2019-05-16T01:39:04.359Z,82.87
2019-05-16T01:44:07.698Z,83.20
2019-05-16T01:49:08.358Z,83.93
2019-05-16T01:54:09.363Z,84.34
2019-05-16T01:59:10.246Z,82.67
2019-05-16T02:04:12.195Z,83.98
2019-05-16T02:09:13.404Z,83.69
2019-05-16T02:14:14.279Z,84.63
2019-05-16T02:19:15.138Z,82.68
2019-05-16T02:24:18.227Z,83.52
2019-05-16T02:29:20.473Z,83.72
2019-05-16T02:34:22.049Z,84.01
2019-05-16T02:39:22.949Z,83.53
2019-05-16T02:44:24.691Z,82.66
2019-05-16T02:49:25.923Z,83.62
2019-05-16T02:54:26.915Z,83.70
2019-05-16T02:59:30.598Z,83.40
2019-05-16T03:04:30.854Z,83.21
2019-05-16T03:09:32.864Z,84.11
2019-05-16T03:14:33.853Z,84.87
2019-05-16T03:19:34.913Z,84.45
2019-05-16T03:24:35.799Z,83.38
2019-05-16T03:29:36.669Z,83.63
2019-05-16T03:34:37.534Z,84.17
2019-05-16T03:39:40.704Z,83.41
2019-05-16T03:44:41.260Z,84.14
2019-05-16T03:49:42.405Z,84.17
2019-05-16T03:54:43.557Z,84.55
2019-05-16T03:59:44.461Z,83.23
2019-05-16T04:04:45.331Z,82.72
2019-05-16T04:09:46.311Z,83.07
2019-05-16T04:14:47.279Z,82.94
2019-05-16T04:19:50.756Z,83.23
2019-05-16T04:24:51.345Z,82.34
2019-05-16T04:29:52.512Z,83.12
2019-05-16T04:34:53.391Z,83.18
2019-05-16T04:39:54.270Z,82.53
2019-05-16T04:44:55.142Z,82.83
2019-05-16T04:49:56.030Z,83.12
2019-05-16T04:54:56.885Z,83.40
2019-05-16T04:59:57.782Z,82.58
2019-05-16T05:05:01.192Z,82.05
2019-05-16T05:10:02.134Z,82.63
2019-05-16T05:15:06.413Z,82.74
2019-05-16T05:20:15.621Z,81.49
2019-05-16T05:25:16.602Z,81.03
2019-05-16T05:30:19.756Z,80.65
2019-05-16T05:35:20.928Z,81.94
2019-05-16T05:40:21.960Z,81.27
2019-05-16T05:45:22.832Z,80.95
2019-05-16T05:50:24.304Z,78.91
2019-05-16T05:55:25.194Z,78.21
2019-05-16T06:00:26.174Z,79.57
2019-05-16T06:05:27.045Z,78.32
2019-05-16T06:10:30.296Z,79.91
2019-05-16T06:15:31.007Z,77.40
2019-05-16T06:20:31.880Z,78.09
2019-05-16T06:25:32.761Z,78.14
2019-05-16T06:30:33.831Z,77.93
2019-05-16T06:35:34.717Z,77.03
2019-05-16T06:40:35.585Z,77.32
2019-05-16T06:45:36.700Z,77.17
2019-05-16T06:50:37.574Z,77.64
2019-05-16T06:55:40.112Z,77.54
2019-05-16T07:00:41.251Z,77.99
2019-05-16T07:05:42.131Z,77.64
2019-05-16T07:10:42.997Z,78.33
2019-05-16T07:15:43.931Z,78.47
2019-05-16T07:20:44.808Z,78.33
2019-05-16T07:25:45.680Z,79.01
2019-05-16T07:30:46.561Z,77.07
2019-05-16T07:35:47.628Z,77.12
2019-05-16T07:40:50.795Z,77.30
2019-05-16T07:45:51.760Z,77.05
2019-05-16T07:50:52.785Z,75.27
2019-05-16T07:55:53.659Z,75.99
2019-05-16T08:01:02.688Z,76.27
2019-05-16T08:05:57.828Z,76.04
2019-05-16T08:11:01.456Z,73.80
2019-05-16T08:16:01.786Z,73.36
2019-05-16T08:21:02.675Z,75.66
2019-05-16T08:26:03.557Z,75.54
2019-05-16T08:31:04.432Z,74.34
2019-05-16T08:36:08.191Z,74.12
2019-05-16T08:50:05.529Z,70.47
2019-05-16T08:51:14.165Z,70.75
2019-05-16T08:56:15.630Z,71.36
2019-05-16T09:01:16.624Z,68.22
2019-05-16T09:06:17.955Z,71.28
2019-05-16T09:10:21.220Z,72.36
2019-05-16T09:11:33.863Z,68.90
2019-05-16T09:16:27.711Z,68.25
2019-05-16T09:21:28.973Z,68.33
2019-05-16T09:26:29.902Z,68.74
2019-05-16T09:31:30.890Z,68.00
2019-05-16T09:36:32.479Z,69.03
2019-05-16T09:41:47.625Z,69.42
2019-05-16T09:46:37.636Z,67.07
2019-05-16T09:51:38.829Z,67.07
2019-05-16T09:56:39.704Z,67.59
2019-05-16T10:01:40.704Z,69.08
2019-05-16T10:06:41.682Z,67.98
2019-05-16T10:11:43.015Z,65.63
2019-05-16T10:16:47.573Z,63.71
2019-05-16T10:21:47.624Z,63.40
2019-05-16T10:26:53.741Z,63.40
2019-05-16T10:31:53.470Z,62.79
2019-05-16T10:36:57.341Z,63.21
2019-05-16T10:41:57.572Z,59.90
2019-05-16T10:46:58.620Z,59.90
2019-05-16T10:51:59.494Z,62.47
2019-05-16T10:57:00.591Z,59.70
2019-05-16T11:02:01.592Z,55.50
2019-05-16T11:07:02.501Z,60.31
2019-05-16T11:12:03.854Z,61.30
2019-05-16T11:17:11.837Z,58.61
2019-05-16T11:22:07.839Z,62.10
2019-05-16T11:27:08.711Z,61.49
2019-05-16T11:32:10.149Z,62.08
2019-05-16T11:37:11.019Z,61.79
2019-05-16T11:42:13.170Z,59.72
2019-05-16T11:47:16.497Z,61.32
2019-05-16T11:52:18.041Z,61.27
2019-05-16T11:57:19.139Z,61.96
2019-05-16T12:02:20.381Z,60.12
2019-05-16T12:07:22.189Z,61.82
2019-05-16T12:12:23.073Z,63.89
2019-05-16T12:17:23.943Z,61.58
2019-05-16T12:22:26.776Z,62.21
2019-05-16T12:27:32.616Z,61.67
2019-05-16T12:32:30.433Z,61.24
2019-05-16T12:37:31.312Z,61.81
2019-05-16T12:42:36.489Z,61.36
2019-05-16T12:47:38.281Z,59.73
2019-05-16T12:52:39.739Z,61.22
2019-05-16T12:57:42.637Z,61.67
2019-05-16T13:02:43.534Z,61.91
2019-05-16T13:07:47.883Z,61.52
2019-05-16T13:12:51.357Z,61.34
2019-05-16T13:18:40.614Z,61.08
2019-05-16T13:23:41.581Z,60.42
2019-05-16T13:28:42.463Z,59.92
2019-05-16T13:33:44.241Z,61.09
2019-05-16T13:43:55.256Z,61.89
2019-05-16T13:48:56.107Z,61.67
2019-05-16T13:53:56.980Z,60.29
2019-05-16T13:58:57.863Z,59.34
2019-05-16T14:03:58.752Z,60.19
2019-05-16T14:09:00.493Z,59.47
2019-05-16T14:14:04.726Z,59.87
2019-05-16T14:19:04.736Z,57.74
2019-05-16T14:24:08.478Z,59.78
2019-05-16T14:29:08.412Z,58.86
2019-05-16T14:34:09.285Z,59.23
2019-05-16T14:39:10.271Z,56.85
2019-05-16T14:44:11.150Z,58.40
2019-05-16T14:49:12.023Z,58.45
2019-05-16T14:54:12.907Z,59.75
2019-05-16T14:59:13.769Z,59.53
2019-05-16T15:04:14.938Z,59.93
2019-05-16T15:09:17.191Z,59.44
2019-05-16T15:14:18.695Z,59.22
2019-05-16T15:19:19.608Z,59.07
2019-05-16T15:24:22.361Z,60.55
2019-05-16T15:29:23.622Z,60.66
2019-05-16T15:34:29.901Z,61.10
2019-05-16T15:39:27.831Z,60.17
2019-05-16T15:44:28.673Z,61.32
2019-05-16T15:49:29.649Z,62.17
2019-05-16T15:54:31.340Z,60.70
2019-05-16T15:59:32.232Z,61.26
2019-05-16T16:04:33.112Z,60.50
2019-05-16T16:09:34.095Z,60.93
2019-05-16T16:14:36.765Z,60.51
2019-05-16T16:19:37.740Z,60.46
2019-05-16T16:24:38.708Z,60.18
2019-05-16T16:29:39.582Z,61.43
2019-05-16T16:34:40.958Z,61.79
2019-05-16T16:39:41.829Z,61.71
2019-05-16T16:44:42.704Z,61.38
2019-05-16T16:49:43.601Z,61.10
2019-05-16T16:54:44.469Z,58.23
2019-05-16T16:59:47.666Z,58.97
2019-05-16T17:04:50.907Z,61.71
2019-05-16T17:09:51.039Z,61.45
2019-05-16T17:14:51.890Z,61.05
2019-05-16T17:19:52.864Z,61.58
2019-05-16T17:24:53.768Z,61.07
2019-05-16T17:29:56.890Z,61.19
2019-05-16T17:34:57.408Z,62.14
2019-05-16T17:39:58.271Z,61.90
2019-05-16T17:44:59.191Z,62.90
2019-05-16T17:50:00.049Z,63.62
2019-05-16T17:55:01.023Z,64.09
2019-05-16T18:00:12.813Z,65.70
2019-05-16T18:05:11.075Z,66.10
2019-05-16T18:10:12.760Z,66.23
2019-05-16T18:15:17.449Z,66.84
2019-05-16T18:20:21.667Z,67.21
2019-05-16T18:25:21.623Z,67.60
2019-05-16T18:30:22.989Z,67.07
2019-05-16T18:35:24.014Z,67.59
2019-05-16T18:40:27.132Z,67.42
2019-05-16T18:45:27.836Z,67.67
2019-05-16T18:50:28.756Z,67.81
2019-05-16T18:55:29.651Z,68.55
2019-05-16T19:00:30.863Z,67.98
2019-05-16T19:05:32.135Z,68.58
2019-05-16T19:10:33.230Z,70.33
2019-05-16T19:15:34.237Z,72.84
2019-05-16T19:20:37.175Z,71.80
2019-05-16T19:25:38.085Z,71.86
2019-05-16T19:30:39.109Z,72.18
2019-05-16T19:35:40.014Z,70.96
2019-05-16T19:40:40.897Z,70.49
2019-05-16T19:45:41.888Z,70.39
2019-05-16T19:50:42.769Z,71.09
2019-05-16T19:55:43.687Z,71.37
2019-05-16T20:00:46.530Z,72.38
2019-05-16T20:05:47.725Z,72.38
2019-05-16T20:10:48.889Z,72.33
2019-05-16T20:15:49.777Z,73.25
